createdAt,value
2017-08-01T00:01:52.414Z,23.10
2017-08-01T00:04:18.354Z,23.00
2017-08-01T00:06:44.284Z,22.90
2017-08-01T00:09:10.313Z,23.00
2017-08-01T00:11:36.264Z,23.10
2017-08-01T00:14:02.189Z,23.40
2017-08-01T00:16:28.880Z,23.50
2017-08-01T00:18:54.814Z,23.40
2017-08-01T00:21:20.759Z,23.40
2017-08-01T00:23:46.701Z,23.60
2017-08-01T00:26:12.646Z,23.40
2017-08-01T00:28:39.386Z,23.10
2017-08-01T00:42:53.085Z,22.80
2017-08-01T00:45:19.032Z,22.60
2017-08-01T00:47:44.961Z,22.60
2017-08-01T00:50:10.894Z,22.60
2017-08-01T00:52:36.829Z,22.80
2017-08-01T00:55:02.793Z,22.80
2017-08-01T00:57:28.714Z,22.60
2017-08-01T00:59:55.400Z,22.50
2017-08-01T01:02:21.315Z,22.50
2017-08-01T01:04:47.248Z,22.60
2017-08-01T01:07:13.163Z,22.50
2017-08-01T01:09:39.077Z,22.70
2017-08-01T01:12:05.730Z,22.90
2017-08-01T01:14:31.650Z,22.90
2017-08-01T01:16:58.309Z,22.90
2017-08-01T01:19:24.238Z,22.90
2017-08-01T01:21:50.206Z,22.80
2017-08-01T01:24:16.133Z,22.70
2017-08-01T01:26:42.045Z,22.30
2017-08-01T01:29:07.973Z,21.70
2017-08-01T01:31:33.926Z,21.50
2017-08-01T01:33:59.841Z,21.20
2017-08-01T01:36:25.754Z,20.90
2017-08-01T01:38:51.748Z,20.70
2017-08-01T01:41:17.672Z,20.30
2017-08-01T01:43:43.597Z,20.50
2017-08-01T01:46:09.514Z,20.20
2017-08-01T01:48:36.175Z,20.00
2017-08-01T01:51:02.087Z,20.00
2017-08-01T01:53:28.752Z,20.10
2017-08-01T01:55:54.701Z,20.00
2017-08-01T01:58:20.629Z,20.20
2017-08-01T02:00:46.602Z,19.70
2017-08-01T02:03:12.521Z,19.60
2017-08-01T02:05:38.486Z,19.60
2017-08-01T02:08:05.113Z,19.50
2017-08-01T02:10:31.030Z,19.40
2017-08-01T02:12:57.698Z,19.40
2017-08-01T02:15:23.624Z,19.40
2017-08-01T02:17:49.546Z,19.50
2017-08-01T02:20:15.521Z,19.60
2017-08-01T02:22:41.460Z,19.80
2017-08-01T02:25:07.382Z,19.80
2017-08-01T02:27:33.304Z,19.70
2017-08-01T02:29:59.234Z,19.70
2017-08-01T02:32:25.156Z,19.70
2017-08-01T02:34:51.084Z,19.70
2017-08-01T02:37:17.011Z,19.60
2017-08-01T02:39:42.945Z,19.40
2017-08-01T02:42:09.737Z,19.40
2017-08-01T02:44:35.674Z,19.40
2017-08-01T02:47:01.602Z,19.30
2017-08-01T02:49:27.515Z,19.40
2017-08-01T02:51:53.446Z,19.70
2017-08-01T02:54:19.359Z,19.90
2017-08-01T02:56:46.019Z,20.00
2017-08-01T02:59:11.950Z,20.00
2017-08-01T03:01:37.892Z,20.20
2017-08-01T03:04:03.861Z,20.50
2017-08-01T03:06:31.089Z,20.70
2017-08-01T03:08:57.021Z,20.00
2017-08-01T03:11:22.941Z,20.10
2017-08-01T03:13:48.858Z,20.10
2017-08-01T03:16:14.765Z,20.20
2017-08-01T03:18:40.688Z,20.40
2017-08-01T03:21:06.624Z,20.70
2017-08-01T03:26:28.221Z,20.50
2017-08-01T03:28:54.894Z,20.50
2017-08-01T03:31:20.810Z,20.50
2017-08-01T03:33:47.479Z,20.30
2017-08-01T03:36:13.393Z,20.30
2017-08-01T03:38:40.053Z,20.40
2017-08-01T03:41:05.978Z,20.40
2017-08-01T03:43:31.927Z,20.50
2017-08-01T03:45:57.837Z,20.20
2017-08-01T03:48:23.806Z,20.40
2017-08-01T03:50:49.737Z,20.50
2017-08-01T03:53:15.641Z,20.40
2017-08-01T03:55:41.609Z,20.60
2017-08-01T03:58:07.517Z,20.80
2017-08-01T04:00:33.441Z,21.00
2017-08-01T04:02:59.370Z,21.20
2017-08-01T04:05:25.342Z,21.20
2017-08-01T04:07:51.273Z,21.30
2017-08-01T04:10:17.237Z,21.40
2017-08-01T04:12:43.162Z,21.40
2017-08-01T04:15:09.085Z,21.40
2017-08-01T04:17:34.990Z,21.40
2017-08-01T04:20:00.930Z,20.90
2017-08-01T04:22:26.838Z,20.70
2017-08-01T04:24:52.762Z,20.70
2017-08-01T04:27:18.687Z,20.90
2017-08-01T04:29:44.618Z,21.00
2017-08-01T04:32:10.563Z,20.90
2017-08-01T04:34:36.485Z,20.90
2017-08-01T04:37:02.418Z,21.00
2017-08-01T04:39:29.732Z,21.20
2017-08-01T04:41:56.856Z,21.20
2017-08-01T04:44:22.774Z,21.20
2017-08-01T04:46:48.693Z,21.00
2017-08-01T04:49:14.683Z,20.90
2017-08-01T04:51:41.329Z,21.10
2017-08-01T04:54:07.265Z,21.00
2017-08-01T04:56:33.225Z,21.00
2017-08-01T04:58:59.146Z,21.10
2017-08-01T05:01:25.126Z,21.00
2017-08-01T05:03:51.107Z,20.90
2017-08-01T05:06:17.029Z,20.80
2017-08-01T05:08:42.970Z,20.80
2017-08-01T05:11:08.881Z,20.80
2017-08-01T05:13:34.823Z,20.90
2017-08-01T05:16:00.740Z,21.10
2017-08-01T05:18:26.662Z,21.10
2017-08-01T05:20:52.597Z,21.00
2017-08-01T05:23:18.546Z,21.00
2017-08-01T05:25:44.450Z,21.10
2017-08-01T05:28:10.385Z,21.20
2017-08-01T05:33:38.014Z,21.30
2017-08-01T05:36:03.966Z,21.20
2017-08-01T05:38:29.905Z,21.20
2017-08-01T05:40:55.833Z,21.20
2017-08-01T05:43:21.754Z,21.40
2017-08-01T05:45:47.682Z,21.50
2017-08-01T05:48:13.654Z,21.50
2017-08-01T05:50:40.337Z,21.60
2017-08-01T05:53:06.261Z,21.60
2017-08-01T05:55:32.202Z,21.90
2017-08-01T05:57:58.182Z,22.00
2017-08-01T06:00:24.853Z,22.20
2017-08-01T06:02:50.769Z,22.10
2017-08-01T06:05:16.721Z,22.00
2017-08-01T06:07:42.690Z,22.10
2017-08-01T06:10:08.613Z,22.20
2017-08-01T06:12:34.546Z,22.10
2017-08-01T06:15:00.481Z,22.00
2017-08-01T06:17:26.425Z,22.00
2017-08-01T06:19:56.129Z,22.00
2017-08-01T06:22:22.803Z,22.00
2017-08-01T06:24:48.738Z,22.00
2017-08-01T06:27:14.678Z,22.30
2017-08-01T06:29:40.597Z,22.40
2017-08-01T06:32:06.501Z,22.40
2017-08-01T06:34:32.432Z,22.50
2017-08-01T06:36:58.354Z,22.60
2017-08-01T06:39:37.413Z,22.70
2017-08-01T06:42:03.391Z,22.90
2017-08-01T06:44:29.321Z,23.30
2017-08-01T06:46:55.994Z,23.70
2017-08-01T06:58:13.431Z,23.80
2017-08-01T07:00:39.365Z,23.80
2017-08-01T07:03:05.292Z,23.90
2017-08-01T07:05:31.230Z,24.20
2017-08-01T07:07:57.190Z,24.50
2017-08-01T07:10:23.117Z,24.40
2017-08-01T07:12:49.049Z,24.50
2017-08-01T07:15:14.969Z,24.40
2017-08-01T07:17:40.886Z,24.60
2017-08-01T07:20:06.806Z,24.70
2017-08-01T07:22:32.721Z,24.80
2017-08-01T07:24:58.645Z,24.50
2017-08-01T07:27:24.562Z,24.00
2017-08-01T07:29:50.488Z,24.00
2017-08-01T07:32:16.399Z,24.10
2017-08-01T07:34:42.330Z,24.20
2017-08-01T07:37:08.985Z,24.40
2017-08-01T07:39:34.925Z,24.40
2017-08-01T07:42:00.855Z,24.50
2017-08-01T07:44:26.778Z,24.50
2017-08-01T07:46:52.716Z,24.70
2017-08-01T07:49:18.661Z,24.80
2017-08-01T07:51:44.568Z,24.80
2017-08-01T07:54:10.499Z,24.70
2017-08-01T07:56:36.413Z,24.60
2017-08-01T07:59:02.333Z,24.90
2017-08-01T08:01:28.272Z,25.10
2017-08-01T08:03:54.197Z,25.10
2017-08-01T08:06:20.144Z,25.10
2017-08-01T08:08:46.049Z,25.00
2017-08-01T08:11:11.957Z,24.90
2017-08-01T08:13:37.993Z,24.60
2017-08-01T08:16:04.645Z,24.50
2017-08-01T08:18:30.983Z,24.50
2017-08-01T08:21:00.995Z,24.50
2017-08-01T08:23:27.026Z,24.40
2017-08-01T08:25:52.964Z,24.50
2017-08-01T08:28:18.874Z,24.60
2017-08-01T08:30:44.839Z,24.50
2017-08-01T08:33:17.908Z,24.50
2017-08-01T08:35:43.888Z,24.40
2017-08-01T08:38:09.833Z,24.40
2017-08-01T08:40:36.517Z,24.20
2017-08-01T08:43:02.498Z,24.20
2017-08-01T08:45:28.453Z,24.40
2017-08-01T08:47:54.395Z,24.10
2017-08-01T08:50:20.332Z,24.10
2017-08-01T08:52:46.263Z,24.20
2017-08-01T08:55:12.250Z,24.40
2017-08-01T08:57:38.188Z,24.60
2017-08-01T09:00:04.275Z,24.90
2017-08-01T09:02:30.253Z,25.00
2017-08-01T09:04:56.219Z,25.20
2017-08-01T09:07:22.232Z,25.00
2017-08-01T09:09:48.230Z,24.80
2017-08-01T09:12:15.106Z,25.30
2017-08-01T09:14:41.065Z,25.40
2017-08-01T09:17:07.058Z,25.50
2017-08-01T09:19:33.019Z,25.70
2017-08-01T09:22:02.087Z,25.80
2017-08-01T09:24:46.134Z,25.90
2017-08-01T09:27:12.080Z,26.10
2017-08-01T09:29:38.026Z,26.10
2017-08-01T09:32:04.717Z,26.10
2017-08-01T09:34:30.631Z,26.20
2017-08-01T09:36:56.558Z,26.10
2017-08-01T09:39:22.490Z,26.10
2017-08-01T09:41:48.434Z,26.40
2017-08-01T09:44:14.374Z,26.30
2017-08-01T09:46:40.318Z,26.50
2017-08-01T09:49:06.274Z,26.40
2017-08-01T09:51:51.685Z,26.60
2017-08-01T09:54:17.607Z,26.60
2017-08-01T09:56:43.537Z,26.70
2017-08-01T09:59:09.467Z,26.60
2017-08-01T10:01:35.407Z,26.70
2017-08-01T10:04:01.353Z,26.90
2017-08-01T10:06:27.291Z,26.90
2017-08-01T10:08:53.190Z,27.00
2017-08-01T10:11:19.120Z,27.10
2017-08-01T10:13:45.086Z,27.40
2017-08-01T10:19:22.415Z,28.20
2017-08-01T10:22:00.842Z,28.50
2017-08-01T10:24:26.758Z,29.00
2017-08-01T10:26:56.420Z,29.00
2017-08-01T10:29:25.778Z,29.20
2017-08-01T10:31:54.886Z,29.30
2017-08-01T10:34:27.151Z,29.60
2017-08-01T10:36:54.145Z,29.60
2017-08-01T10:39:23.868Z,29.40
2017-08-01T10:41:57.169Z,28.60
2017-08-01T10:44:23.925Z,28.30
2017-08-01T10:46:53.802Z,28.30
2017-08-01T10:49:19.713Z,28.40
2017-08-01T10:51:45.649Z,28.50
2017-08-01T10:54:27.509Z,28.50
2017-08-01T10:56:56.950Z,28.70
2017-08-01T10:59:43.253Z,28.90
2017-08-01T11:02:12.696Z,29.00
2017-08-01T11:04:52.061Z,29.00
2017-08-01T11:07:26.446Z,28.70
2017-08-01T11:10:02.718Z,28.20
2017-08-01T11:12:37.053Z,27.90
2017-08-01T11:15:09.497Z,27.90
2017-08-01T11:17:41.862Z,27.80
2017-08-01T11:20:12.179Z,27.60
2017-08-01T11:22:38.119Z,27.60
2017-08-01T11:25:25.739Z,27.00
2017-08-01T11:27:56.245Z,27.20
2017-08-01T11:30:22.225Z,27.10
2017-08-01T11:33:08.015Z,27.20
2017-08-01T11:35:33.934Z,27.30
2017-08-01T11:38:15.650Z,27.70
2017-08-01T11:40:49.145Z,28.20
2017-08-01T11:43:23.314Z,28.60
2017-08-01T11:45:57.693Z,28.60
2017-08-01T11:48:27.121Z,28.80
2017-08-01T11:50:53.145Z,29.10
2017-08-01T11:53:19.229Z,29.10
2017-08-01T11:56:02.966Z,29.40
2017-08-01T11:58:41.458Z,29.90
2017-08-01T12:01:08.500Z,30.30
2017-08-01T12:03:35.537Z,29.90
2017-08-01T12:06:07.309Z,29.80
2017-08-01T12:08:37.824Z,29.10
2017-08-01T12:11:03.874Z,29.00
2017-08-01T12:13:29.809Z,28.70
2017-08-01T12:16:03.866Z,28.10
2017-08-01T12:18:29.886Z,28.10
2017-08-01T12:20:59.554Z,27.90
2017-08-01T12:23:29.981Z,28.60
2017-08-01T12:26:01.242Z,28.80
2017-08-01T12:28:37.701Z,28.80
2017-08-01T12:31:09.068Z,29.20
2017-08-01T12:33:40.511Z,29.00
2017-08-01T12:36:16.789Z,29.40
2017-08-01T12:38:44.725Z,29.90
2017-08-01T12:41:36.527Z,30.30
2017-08-01T12:44:07.094Z,30.40
2017-08-01T12:46:37.418Z,29.60
2017-08-01T12:49:05.410Z,29.60
2017-08-01T12:51:39.918Z,29.40
2017-08-01T12:54:13.341Z,29.20
2017-08-01T12:56:41.410Z,29.00
2017-08-01T12:59:07.417Z,28.50
2017-08-01T13:01:36.422Z,28.10
2017-08-01T13:04:10.646Z,27.30
2017-08-01T13:06:43.102Z,27.00
2017-08-01T13:09:17.434Z,27.10
2017-08-01T13:11:45.186Z,26.90
2017-08-01T13:14:11.945Z,26.90
2017-08-01T13:16:38.678Z,26.60
2017-08-01T13:19:04.777Z,26.60
2017-08-01T13:21:30.737Z,26.70
2017-08-01T13:24:08.289Z,26.50
2017-08-01T13:29:31.200Z,26.50
2017-08-01T13:31:57.921Z,26.10
2017-08-01T13:34:27.676Z,26.10
2017-08-01T13:36:53.674Z,26.00
2017-08-01T13:39:25.438Z,25.80
2017-08-01T13:42:04.821Z,25.80
2017-08-01T13:44:34.269Z,25.80
2017-08-01T13:47:11.482Z,25.70
2017-08-01T13:52:31.440Z,25.70
2017-08-01T13:54:58.413Z,25.70
2017-08-01T13:57:38.218Z,25.80
2017-08-01T14:03:05.142Z,25.50
2017-08-01T14:05:34.502Z,25.50
2017-08-01T14:08:18.821Z,25.40
2017-08-01T14:11:06.148Z,25.40
2017-08-01T14:16:31.319Z,24.90
2017-08-01T14:19:04.642Z,24.80
2017-08-01T14:24:30.498Z,24.80
2017-08-01T14:30:02.978Z,25.20
2017-08-01T14:35:22.066Z,25.70
2017-08-01T14:37:49.845Z,25.60
2017-08-01T14:40:29.631Z,25.60
2017-08-01T14:43:13.082Z,25.70
2017-08-01T14:45:47.467Z,25.80
2017-08-01T14:48:13.393Z,26.10
2017-08-01T14:50:55.283Z,26.20
2017-08-01T14:53:21.226Z,26.40
2017-08-01T14:56:05.278Z,26.60
2017-08-01T14:58:39.563Z,26.60
2017-08-01T15:01:12.096Z,26.60
2017-08-01T15:03:46.367Z,26.40
2017-08-01T15:06:16.749Z,26.20
2017-08-01T15:08:55.109Z,26.00
2017-08-01T15:11:31.461Z,25.80
2017-08-01T15:14:02.677Z,25.40
2017-08-01T15:16:37.053Z,25.30
2017-08-01T15:19:22.338Z,25.30
2017-08-01T15:24:50.166Z,26.10
2017-08-01T15:27:27.442Z,26.40
2017-08-01T15:33:01.598Z,26.60
2017-08-01T15:35:28.602Z,26.70
2017-08-01T15:38:09.197Z,26.90
2017-08-01T15:43:28.738Z,26.80
2017-08-01T15:46:12.857Z,26.90
2017-08-01T15:48:38.801Z,26.90
2017-08-01T15:57:11.643Z,27.00
2017-08-01T16:02:50.605Z,26.90
2017-08-01T16:05:24.985Z,26.90
2017-08-01T16:07:50.925Z,26.80
2017-08-01T16:10:32.552Z,26.80
2017-08-01T16:13:07.125Z,26.90
2017-08-01T16:15:34.141Z,26.80
2017-08-01T16:18:04.792Z,26.90
2017-08-01T16:20:51.060Z,26.90
2017-08-01T16:23:23.486Z,27.00
2017-08-01T16:25:57.850Z,26.80
2017-08-01T16:28:33.210Z,26.70
2017-08-01T16:31:06.518Z,26.60
2017-08-01T16:33:38.989Z,26.60
2017-08-01T16:36:13.439Z,26.60
2017-08-01T16:38:47.645Z,26.60
2017-08-01T16:41:21.041Z,26.70
2017-08-01T16:43:55.360Z,26.80
2017-08-01T16:46:22.376Z,27.00
2017-08-01T16:49:04.246Z,27.10
2017-08-01T16:51:37.712Z,27.30
2017-08-01T16:54:03.669Z,27.50
2017-08-01T16:56:45.437Z,27.50
2017-08-01T16:59:16.744Z,27.60
2017-08-01T17:01:53.113Z,27.80
2017-08-01T17:04:21.908Z,27.80
2017-08-01T17:07:00.782Z,28.00
2017-08-01T17:09:30.207Z,28.00
2017-08-01T17:11:58.245Z,28.20
2017-08-01T17:14:25.241Z,28.20
2017-08-01T17:16:53.953Z,28.30
2017-08-01T17:22:24.102Z,28.40
2017-08-01T17:25:00.452Z,28.30
2017-08-01T17:27:29.855Z,28.50
2017-08-01T17:30:09.088Z,28.50
2017-08-01T17:32:42.498Z,28.50
2017-08-01T17:35:16.810Z,28.30
2017-08-01T17:37:50.413Z,28.50
2017-08-01T17:40:26.894Z,28.70
2017-08-01T17:42:53.907Z,28.50
2017-08-01T17:45:34.435Z,28.30
2017-08-01T17:48:06.874Z,28.30
2017-08-01T17:50:41.216Z,28.30
2017-08-01T17:56:07.929Z,28.20
2017-08-01T17:58:44.295Z,28.10
2017-08-01T18:09:49.990Z,27.90
2017-08-01T18:12:16.003Z,27.90
2017-08-01T18:20:50.205Z,27.70
2017-08-01T18:49:18.274Z,26.30
2017-08-01T18:51:48.919Z,26.30
2017-08-01T18:57:26.734Z,26.20
2017-08-01T19:00:03.283Z,26.10
2017-08-01T19:02:35.578Z,25.90
2017-08-01T19:05:06.758Z,25.90
2017-08-01T19:07:32.681Z,25.80
2017-08-01T19:09:58.709Z,25.80
2017-08-01T19:12:24.669Z,25.90
2017-08-01T19:14:51.373Z,26.10
2017-08-01T19:17:17.309Z,26.10
2017-08-01T19:19:43.286Z,25.90
2017-08-01T19:22:09.931Z,25.60
2017-08-01T19:24:39.036Z,25.60
2017-08-01T19:27:06.961Z,25.60
2017-08-01T19:29:32.877Z,25.50
2017-08-01T19:31:58.802Z,25.40
2017-08-01T19:34:38.141Z,25.20
2017-08-01T19:37:04.070Z,25.10
2017-08-01T19:39:30.049Z,25.10
2017-08-01T19:41:55.968Z,25.10
2017-08-01T19:44:21.946Z,25.10
2017-08-01T19:46:49.213Z,25.20
2017-08-01T19:49:19.133Z,25.10
2017-08-01T19:51:45.218Z,25.20
2017-08-01T19:57:08.272Z,25.70
2017-08-01T19:59:34.182Z,25.70
2017-08-01T20:02:01.865Z,25.90
2017-08-01T20:04:27.818Z,25.90
2017-08-01T20:06:53.757Z,25.80
2017-08-01T20:09:19.794Z,25.90
2017-08-01T20:11:45.733Z,25.90
2017-08-01T20:14:15.153Z,25.90
2017-08-01T20:16:41.144Z,25.90
2017-08-01T20:19:07.079Z,25.90
2017-08-01T20:21:33.025Z,25.60
2017-08-01T20:23:58.978Z,25.60
2017-08-01T20:26:26.636Z,25.50
2017-08-01T20:28:53.336Z,25.20
2017-08-01T20:31:19.326Z,25.20
2017-08-01T20:33:45.336Z,25.10
2017-08-01T20:36:13.032Z,25.00
2017-08-01T20:38:38.973Z,25.00
2017-08-01T20:41:04.901Z,24.90
2017-08-01T20:43:30.842Z,25.00
2017-08-01T20:45:56.786Z,25.00
2017-08-01T20:48:26.874Z,25.00
2017-08-01T20:56:59.372Z,24.90
2017-08-01T20:59:25.310Z,24.90
2017-08-01T21:01:52.302Z,24.80
2017-08-01T21:04:38.648Z,24.80
2017-08-01T21:07:25.057Z,24.80
2017-08-01T21:09:58.497Z,24.80
2017-08-01T21:15:17.998Z,24.70
2017-08-01T21:17:47.500Z,24.70
2017-08-01T21:20:30.853Z,24.70
2017-08-01T21:28:47.453Z,24.80
2017-08-01T21:31:30.837Z,24.80
2017-08-01T21:33:58.761Z,24.90
2017-08-01T21:36:28.457Z,24.90
2017-08-01T21:39:13.658Z,25.00
2017-08-01T21:41:47.346Z,24.90
2017-08-01T21:44:20.841Z,24.90
2017-08-01T21:46:55.404Z,24.90
2017-08-01T21:49:29.472Z,24.90
2017-08-01T21:52:03.786Z,24.90
2017-08-01T21:54:34.096Z,24.90
2017-08-01T21:57:04.424Z,25.00
2017-08-01T21:59:31.079Z,25.00
2017-08-01T22:02:01.156Z,25.00
2017-08-01T22:04:27.082Z,25.00
2017-08-01T22:06:53.045Z,24.60
2017-08-01T22:09:19.721Z,23.90
2017-08-01T22:11:45.638Z,23.90
2017-08-01T22:14:11.562Z,23.70
2017-08-01T22:16:38.206Z,24.10
2017-08-01T22:19:04.152Z,24.00
2017-08-01T22:21:30.115Z,24.20
2017-08-01T22:23:56.062Z,24.20
2017-08-01T22:26:22.718Z,23.90
2017-08-01T22:28:48.641Z,23.90
2017-08-01T22:31:15.327Z,23.70
2017-08-01T22:33:41.265Z,23.70
2017-08-01T22:36:07.185Z,23.70
2017-08-01T22:38:33.190Z,23.80
2017-08-01T22:40:59.144Z,23.80
2017-08-01T22:43:25.085Z,23.70
2017-08-01T22:45:51.045Z,23.70
2017-08-01T22:48:17.709Z,23.60
2017-08-01T22:50:43.655Z,23.60
2017-08-01T22:53:09.576Z,23.70
2017-08-01T22:55:35.509Z,23.60
2017-08-01T22:58:01.425Z,23.50
2017-08-01T23:00:27.374Z,23.50
2017-08-01T23:02:53.313Z,23.40
2017-08-01T23:16:43.329Z,23.30
2017-08-01T23:19:09.295Z,23.10
2017-08-01T23:21:36.042Z,23.30
2017-08-01T23:24:02.749Z,23.50
2017-08-01T23:29:41.287Z,23.60
2017-08-01T23:32:07.257Z,23.70
2017-08-01T23:34:33.275Z,23.80
2017-08-01T23:36:59.985Z,23.80
2017-08-01T23:39:25.948Z,23.80
2017-08-01T23:41:52.711Z,23.80
2017-08-01T23:44:18.673Z,23.80
2017-08-01T23:46:44.658Z,23.80
2017-08-01T23:49:10.605Z,23.70
2017-08-01T23:51:36.577Z,23.70
2017-08-01T23:54:02.577Z,23.70
2017-08-01T23:56:28.585Z,23.70
2017-08-01T23:58:54.558Z,23.70
